createdAt,value
2023-03-13T00:01:44.237Z,97743.55
2023-03-13T00:04:12.066Z,97751.70
2023-03-13T00:06:40.839Z,97751.38
2023-03-13T00:09:11.645Z,97754.02
2023-03-13T00:11:39.355Z,97761.63
2023-03-13T00:14:08.464Z,97753.11
2023-03-13T00:16:37.424Z,97760.42
2023-03-13T00:19:07.286Z,97760.83
2023-03-13T00:21:36.889Z,97758.85
2023-03-13T00:24:04.814Z,97765.36
2023-03-13T00:26:32.441Z,97764.44
2023-03-13T00:29:00.282Z,97755.95
2023-03-13T00:31:31.918Z,97751.92
2023-03-13T00:34:02.312Z,97760.34
2023-03-13T00:36:34.053Z,97762.13
2023-03-13T00:39:05.733Z,97763.44
2023-03-13T00:41:37.656Z,97758.70
2023-03-13T00:44:06.178Z,97763.44
2023-03-13T00:46:34.570Z,97758.17
2023-03-13T00:49:03.238Z,97764.24
2023-03-13T00:51:30.968Z,97764.24
2023-03-13T00:54:00.608Z,97768.99
2023-03-13T00:56:29.516Z,97761.61
2023-03-13T00:58:57.506Z,97766.33
2023-03-13T01:01:29.041Z,97765.22
2023-03-13T01:04:00.950Z,97766.78
2023-03-13T01:06:33.688Z,97768.59
2023-03-13T01:09:04.114Z,97775.16
2023-03-13T01:11:36.047Z,97780.09
2023-03-13T01:14:08.045Z,97775.83
2023-03-13T01:16:37.623Z,97777.67
2023-03-13T01:19:12.550Z,97775.55
2023-03-13T01:21:40.605Z,97773.96
2023-03-13T01:24:09.200Z,97772.36
2023-03-13T01:26:37.033Z,97771.27
2023-03-13T01:29:04.853Z,97775.22
2023-03-13T01:31:35.638Z,97774.70
2023-03-13T01:34:06.583Z,97768.36
2023-03-13T01:36:37.251Z,97771.51
2023-03-13T01:39:05.896Z,97770.71
2023-03-13T01:41:33.735Z,97783.30
2023-03-13T01:44:01.287Z,97785.08
2023-03-13T01:46:36.597Z,97783.48
2023-03-13T01:49:23.374Z,97779.26
2023-03-13T01:51:58.426Z,97783.14
2023-03-13T01:54:40.927Z,97788.35
2023-03-13T01:57:17.187Z,97784.19
2023-03-13T01:59:53.127Z,97788.94
2023-03-13T02:02:22.686Z,97787.62
2023-03-13T02:04:55.318Z,97795.21
2023-03-13T02:07:37.086Z,97790.41
2023-03-13T02:10:06.471Z,97802.50
2023-03-13T02:12:37.939Z,97811.44
2023-03-13T02:15:20.191Z,97816.74
2023-03-13T02:17:50.291Z,97817.57
2023-03-13T02:20:21.781Z,97822.31
2023-03-13T02:23:31.378Z,97834.38
2023-03-13T02:25:59.391Z,97832.55
2023-03-13T02:28:33.133Z,97843.60
2023-03-13T02:31:01.997Z,97843.84
2023-03-13T02:33:36.282Z,97838.58
2023-03-13T02:36:07.648Z,97831.23
2023-03-13T02:38:41.688Z,97832.61
2023-03-13T02:41:10.784Z,97838.67
2023-03-13T02:43:40.016Z,97840.58
2023-03-13T02:46:15.179Z,97827.93
2023-03-13T02:48:52.748Z,97828.72
2023-03-13T02:51:37.812Z,97828.97
2023-03-13T02:54:10.590Z,97830.73
2023-03-13T02:56:41.895Z,97834.73
2023-03-13T02:59:10.123Z,97838.74
2023-03-13T03:01:39.529Z,97842.23
2023-03-13T03:04:07.612Z,97843.83
2023-03-13T03:06:35.609Z,97839.36
2023-03-13T03:09:05.260Z,97843.03
2023-03-13T03:11:34.783Z,97836.52
2023-03-13T03:14:05.452Z,97831.80
2023-03-13T03:16:35.129Z,97830.55
2023-03-13T03:19:06.180Z,97834.56
2023-03-13T03:21:35.049Z,97834.63
2023-03-13T03:24:03.483Z,97843.87
2023-03-13T03:26:31.542Z,97851.84
2023-03-13T03:29:00.146Z,97851.39
2023-03-13T03:31:28.537Z,97855.07
2023-03-13T03:33:57.418Z,97853.97
2023-03-13T03:36:25.540Z,97848.94
2023-03-13T03:38:53.619Z,97853.10
2023-03-13T03:41:23.260Z,97857.05
2023-03-13T03:43:51.316Z,97862.11
2023-03-13T03:46:21.037Z,97870.54
2023-03-13T03:48:48.814Z,97850.19
2023-03-13T03:51:16.684Z,97859.14
2023-03-13T03:53:45.410Z,97851.45
2023-03-13T03:56:14.102Z,97840.91
2023-03-13T03:58:43.790Z,97845.38
2023-03-13T04:01:19.456Z,97840.56
2023-03-13T04:03:48.621Z,97847.39
2023-03-13T04:06:16.744Z,97853.46
2023-03-13T04:08:45.246Z,97852.94
2023-03-13T04:11:14.871Z,97852.20
2023-03-13T04:13:44.556Z,97852.24
2023-03-13T04:16:12.543Z,97867.59
2023-03-13T04:18:41.063Z,97879.45
2023-03-13T04:21:08.902Z,97880.77
2023-03-13T04:23:44.322Z,97879.52
2023-03-13T04:26:13.919Z,97877.61
2023-03-13T04:28:42.118Z,97877.13
2023-03-13T04:31:11.945Z,97887.66
2023-03-13T04:33:41.588Z,97888.74
2023-03-13T04:36:27.505Z,97892.45
2023-03-13T04:39:03.060Z,97899.41
2023-03-13T04:41:35.813Z,97899.41
2023-03-13T04:44:11.625Z,97898.89
2023-03-13T04:46:59.172Z,97897.79
2023-03-13T04:49:37.538Z,97904.16
2023-03-13T04:52:19.417Z,97911.31
2023-03-13T04:55:01.036Z,97914.59
2023-03-13T04:57:45.813Z,97912.64
2023-03-13T05:00:16.923Z,97901.12
2023-03-13T05:02:52.662Z,97910.84
2023-03-13T05:05:23.244Z,97916.00
2023-03-13T05:08:10.375Z,97904.11
2023-03-13T05:10:47.829Z,97896.14
2023-03-13T05:13:17.681Z,97891.21
2023-03-13T05:15:56.341Z,97891.69
2023-03-13T05:18:38.802Z,97894.50
2023-03-13T05:21:09.617Z,97905.10
2023-03-13T05:23:37.315Z,97906.41
2023-03-13T05:26:18.771Z,97906.27
2023-03-13T05:28:57.302Z,97899.98
2023-03-13T05:31:28.090Z,97908.80
2023-03-13T05:34:15.915Z,97918.44
2023-03-13T05:36:54.582Z,97935.45
2023-03-13T05:39:36.010Z,97931.84
2023-03-13T05:42:22.272Z,97927.34
2023-03-13T05:45:04.522Z,97917.38
2023-03-13T05:47:32.356Z,97920.31
2023-03-13T05:50:06.372Z,97930.06
2023-03-13T05:53:04.445Z,97931.09
2023-03-13T05:55:51.665Z,97924.41
2023-03-13T05:58:21.341Z,97936.83
2023-03-13T06:00:57.360Z,97934.70
2023-03-13T06:03:27.022Z,97935.20
2023-03-13T06:05:59.534Z,97943.98
2023-03-13T06:08:29.269Z,97939.97
2023-03-13T06:11:00.395Z,97933.58
2023-03-13T06:13:28.551Z,97938.31
2023-03-13T06:15:58.713Z,97927.64
2023-03-13T06:18:40.361Z,97925.56
2023-03-13T06:21:08.180Z,97927.98
2023-03-13T06:23:36.720Z,97918.30
2023-03-13T06:26:04.687Z,97910.22
2023-03-13T06:28:32.548Z,97917.48
2023-03-13T06:31:05.407Z,97919.69
2023-03-13T06:33:33.811Z,97914.17
2023-03-13T06:36:02.680Z,97911.81
2023-03-13T06:38:30.738Z,97914.20
2023-03-13T06:40:58.605Z,97920.02
2023-03-13T06:43:27.109Z,97917.33
2023-03-13T06:45:55.280Z,97924.50
2023-03-13T06:48:23.286Z,97924.47
2023-03-13T06:50:51.337Z,97925.23
2023-03-13T06:53:20.887Z,97933.98
2023-03-13T06:55:48.758Z,97934.22
2023-03-13T06:58:31.679Z,97936.61
2023-03-13T07:00:49.929Z,97929.71
2023-03-13T07:03:17.728Z,97933.45
2023-03-13T07:05:45.500Z,97929.77
2023-03-13T07:08:13.253Z,97934.28
2023-03-13T07:10:43.174Z,97939.31
2023-03-13T07:13:10.852Z,97943.86
2023-03-13T07:15:38.348Z,97946.74
2023-03-13T07:18:06.359Z,97941.44
2023-03-13T07:20:34.833Z,97946.77
2023-03-13T07:23:02.869Z,97944.41
2023-03-13T07:25:30.597Z,97944.73
2023-03-13T07:28:00.659Z,97944.25
2023-03-13T07:30:28.704Z,97938.00
2023-03-13T07:32:58.247Z,97943.23
2023-03-13T07:35:25.997Z,97949.27
2023-03-13T07:37:53.801Z,97942.45
2023-03-13T07:40:21.452Z,97945.72
2023-03-13T07:42:49.011Z,97938.26
2023-03-13T07:45:16.992Z,97936.30
2023-03-13T07:47:45.080Z,97938.03
2023-03-13T07:50:12.847Z,97945.34
2023-03-13T07:52:40.559Z,97939.53
2023-03-13T07:55:08.922Z,97935.94
2023-03-13T07:57:36.821Z,97938.86
2023-03-13T08:00:07.771Z,97941.43
2023-03-13T08:02:37.324Z,97932.16
2023-03-13T08:05:05.681Z,97933.40
2023-03-13T08:07:33.554Z,97932.33
2023-03-13T08:10:01.315Z,97932.69
2023-03-13T08:12:29.222Z,97939.84
2023-03-13T08:14:57.028Z,97935.05
2023-03-13T08:17:24.902Z,97935.48
2023-03-13T08:19:52.479Z,97931.50
2023-03-13T08:22:20.438Z,97924.67
2023-03-13T08:24:48.168Z,97920.64
2023-03-13T08:27:15.817Z,97926.72
2023-03-13T08:29:43.812Z,97921.06
2023-03-13T08:32:12.584Z,97921.91
2023-03-13T08:34:40.380Z,97929.45
2023-03-13T08:37:08.212Z,97927.87
2023-03-13T08:39:35.995Z,97928.23
2023-03-13T08:42:04.010Z,97923.56
2023-03-13T08:44:31.605Z,97929.25
2023-03-13T08:46:59.534Z,97924.21
2023-03-13T08:49:27.284Z,97929.36
2023-03-13T08:51:56.206Z,97925.95
2023-03-13T08:54:24.097Z,97933.09
2023-03-13T08:56:51.839Z,97936.03
2023-03-13T08:59:19.667Z,97928.06
2023-03-13T09:01:47.439Z,97930.98
2023-03-13T09:04:15.172Z,97928.39
2023-03-13T09:06:42.826Z,97925.78
2023-03-13T09:09:11.964Z,97927.33
2023-03-13T09:11:39.618Z,97919.31
2023-03-13T09:14:09.913Z,97919.31
2023-03-13T09:16:37.923Z,97917.97
2023-03-13T09:19:06.274Z,97927.25
2023-03-13T09:21:35.771Z,97926.48
2023-03-13T09:24:03.665Z,97919.61
2023-03-13T09:26:31.503Z,97920.75
2023-03-13T09:28:59.377Z,97916.91
2023-03-13T09:31:30.482Z,97914.14
2023-03-13T09:33:59.614Z,97910.31
2023-03-13T09:36:28.041Z,97912.53
2023-03-13T09:38:58.758Z,97903.58
2023-03-13T09:41:40.659Z,97901.80
2023-03-13T09:44:29.094Z,97907.23
2023-03-13T09:47:24.669Z,97898.98
2023-03-13T09:50:00.614Z,97895.67
2023-03-13T09:52:40.512Z,97895.05
2023-03-13T09:55:20.980Z,97890.58
2023-03-13T09:57:55.941Z,97889.15
2023-03-13T10:00:41.898Z,97880.03
2023-03-13T10:03:30.452Z,97878.31
2023-03-13T10:06:02.401Z,97881.33
2023-03-13T10:08:35.166Z,97875.89
2023-03-13T10:11:32.736Z,97877.94
2023-03-13T10:14:23.294Z,97870.30
2023-03-13T10:17:05.649Z,97859.95
2023-03-13T10:19:49.781Z,97871.44
2023-03-13T10:22:23.162Z,97862.73
2023-03-13T10:25:11.635Z,97846.89
2023-03-13T10:27:51.240Z,97840.97
2023-03-13T10:30:31.654Z,97832.06
2023-03-13T10:33:10.767Z,97831.20
2023-03-13T10:35:42.175Z,97831.92
2023-03-13T10:38:24.592Z,97816.77
2023-03-13T10:41:08.415Z,97813.13
2023-03-13T10:43:39.077Z,97814.24
2023-03-13T10:49:10.031Z,97803.53
2023-03-13T10:51:40.470Z,97800.45
2023-03-13T10:54:35.431Z,97793.88
2023-03-13T10:57:23.199Z,97795.83
2023-03-13T10:59:52.515Z,97786.53
2023-03-13T11:02:32.203Z,97784.52
2023-03-13T11:05:01.022Z,97784.38
2023-03-13T11:07:39.992Z,97787.05
2023-03-13T11:10:21.280Z,97786.43
2023-03-13T11:12:54.971Z,97771.83
2023-03-13T11:15:48.784Z,97771.22
2023-03-13T11:18:30.834Z,97765.00
2023-03-13T11:21:15.691Z,97763.00
2023-03-13T11:23:37.127Z,97763.68
2023-03-13T11:26:19.422Z,97751.63
2023-03-13T11:29:08.039Z,97748.72
2023-03-13T11:31:49.091Z,97755.89
2023-03-13T11:34:28.161Z,97751.98
2023-03-13T11:37:04.048Z,97745.47
2023-03-13T11:40:13.682Z,97747.56
2023-03-13T11:42:55.283Z,97750.66
2023-03-13T11:45:55.531Z,97751.89
2023-03-13T11:48:37.644Z,97751.86
2023-03-13T11:51:33.381Z,97754.98
2023-03-13T11:54:41.379Z,97750.88
2023-03-13T11:57:37.459Z,97742.91
2023-03-13T12:00:16.356Z,97739.79
2023-03-13T12:03:18.535Z,97738.02
2023-03-13T12:05:58.991Z,97730.36
2023-03-13T12:08:46.193Z,97726.41
2023-03-13T12:11:18.196Z,97723.48
2023-03-13T12:14:03.754Z,97720.17
2023-03-13T12:16:42.819Z,97716.21
2023-03-13T12:19:17.830Z,97713.52
2023-03-13T12:21:52.654Z,97713.39
2023-03-13T12:24:28.817Z,97712.51
2023-03-13T12:27:18.727Z,97711.94
2023-03-13T12:30:06.609Z,97709.59
2023-03-13T12:33:09.270Z,97701.70
2023-03-13T12:35:40.593Z,97700.64
2023-03-13T12:38:34.804Z,97700.17
2023-03-13T12:41:35.406Z,97700.50
2023-03-13T12:44:09.296Z,97696.32
2023-03-13T12:47:00.450Z,97697.25
2023-03-13T12:49:54.537Z,97695.77
2023-03-13T12:52:51.206Z,97693.84
2023-03-13T12:55:46.567Z,97687.39
2023-03-13T12:58:51.612Z,97686.08
2023-03-13T13:01:33.634Z,97677.15
2023-03-13T13:04:14.994Z,97687.51
2023-03-13T13:07:16.978Z,97687.62
2023-03-13T13:10:12.878Z,97689.33
2023-03-13T13:13:08.852Z,97684.31
2023-03-13T13:15:46.555Z,97674.84
2023-03-13T13:18:30.450Z,97670.18
2023-03-13T13:21:22.616Z,97668.23
2023-03-13T13:23:55.292Z,97662.52
2023-03-13T13:26:35.790Z,97654.08
2023-03-13T13:29:14.568Z,97656.20
2023-03-13T13:31:51.215Z,97651.73
2023-03-13T13:34:36.340Z,97651.56
2023-03-13T13:37:24.436Z,97651.56
2023-03-13T13:39:54.641Z,97653.13
2023-03-13T13:42:40.351Z,97654.34
2023-03-13T13:45:25.674Z,97648.17
2023-03-13T13:48:17.233Z,97645.09
2023-03-13T13:51:14.292Z,97652.92
2023-03-13T13:54:01.105Z,97638.31
2023-03-13T13:56:42.558Z,97640.45
2023-03-13T13:59:30.534Z,97627.79
2023-03-13T14:02:18.188Z,97625.05
2023-03-13T14:05:10.892Z,97614.05
2023-03-13T14:08:00.609Z,97614.17
2023-03-13T14:10:38.653Z,97620.03
2023-03-13T14:13:24.500Z,97608.20
2023-03-13T14:15:53.705Z,97601.39
2023-03-13T14:18:27.946Z,97609.22
2023-03-13T14:21:03.576Z,97606.77
2023-03-13T14:23:43.873Z,97604.17
2023-03-13T14:26:22.363Z,97600.65
2023-03-13T14:28:59.033Z,97603.64
2023-03-13T14:31:35.078Z,97595.22
2023-03-13T14:34:08.148Z,97597.25
2023-03-13T14:37:01.435Z,97592.14
2023-03-13T14:39:40.253Z,97584.22
2023-03-13T14:42:18.081Z,97581.72
2023-03-13T14:44:49.593Z,97579.25
2023-03-13T14:47:32.403Z,97576.19
2023-03-13T14:50:04.285Z,97567.90
2023-03-13T14:52:46.870Z,97571.33
2023-03-13T14:55:27.948Z,97561.28
2023-03-13T14:58:05.007Z,97561.28
2023-03-13T15:00:44.847Z,97562.14
2023-03-13T15:03:21.368Z,97566.73
2023-03-13T15:06:15.831Z,97566.03
2023-03-13T15:09:11.704Z,97564.16
2023-03-13T15:11:54.929Z,97567.70
2023-03-13T15:14:39.406Z,97564.30
2023-03-13T15:17:15.026Z,97558.70
2023-03-13T15:19:50.112Z,97552.38
2023-03-13T15:22:21.803Z,97547.63
2023-03-13T15:25:05.054Z,97545.42
2023-03-13T15:27:23.266Z,97535.30
2023-03-13T15:29:51.039Z,97533.31
2023-03-13T15:32:37.840Z,97538.64
2023-03-13T15:35:29.012Z,97536.98
2023-03-13T15:37:59.884Z,97537.91
2023-03-13T15:40:30.811Z,97526.78
2023-03-13T15:42:59.139Z,97530.58
2023-03-13T15:45:26.801Z,97528.03
2023-03-13T15:47:54.909Z,97523.77
2023-03-13T15:50:24.719Z,97525.19
2023-03-13T15:52:52.399Z,97530.66
2023-03-13T15:55:20.376Z,97532.14
2023-03-13T15:57:50.487Z,97533.32
2023-03-13T16:00:25.856Z,97536.95
2023-03-13T16:02:58.219Z,97541.13
2023-03-13T16:05:36.273Z,97542.62
2023-03-13T16:08:04.775Z,97542.70
2023-03-13T16:10:32.884Z,97541.74
2023-03-13T16:13:02.814Z,97545.11
2023-03-13T16:15:30.561Z,97548.52
2023-03-13T16:17:58.521Z,97550.77
2023-03-13T16:20:28.424Z,97553.94
2023-03-13T16:22:56.582Z,97550.42
2023-03-13T16:25:25.311Z,97558.36
2023-03-13T16:27:55.018Z,97562.05
2023-03-13T16:30:30.118Z,97562.02
2023-03-13T16:32:59.297Z,97557.39
2023-03-13T16:35:28.580Z,97557.13
2023-03-13T16:37:57.822Z,97560.94
2023-03-13T16:40:30.320Z,97557.62
2023-03-13T16:42:58.413Z,97554.83
2023-03-13T16:45:26.618Z,97547.45
2023-03-13T16:47:54.573Z,97545.56
2023-03-13T16:50:30.363Z,97546.08
2023-03-13T16:52:58.181Z,97550.08
2023-03-13T16:55:36.407Z,97545.50
2023-03-13T16:58:05.017Z,97541.70
2023-03-13T17:00:32.997Z,97536.04
2023-03-13T17:03:00.860Z,97532.76
2023-03-13T17:05:29.485Z,97538.86
2023-03-13T17:07:59.772Z,97539.06
2023-03-13T17:10:32.285Z,97542.80
2023-03-13T17:13:00.118Z,97546.84
2023-03-13T17:15:28.993Z,97552.16
2023-03-13T17:18:02.585Z,97558.34
2023-03-13T17:20:48.314Z,97561.21
2023-03-13T17:23:16.286Z,97563.56
2023-03-13T17:25:44.205Z,97559.69
2023-03-13T17:28:14.862Z,97550.50
2023-03-13T17:30:42.764Z,97545.86
2023-03-13T17:33:10.603Z,97548.67
2023-03-13T17:35:38.622Z,97551.79
2023-03-13T17:38:06.189Z,97544.98
2023-03-13T17:40:34.431Z,97534.72
2023-03-13T17:43:03.125Z,97541.50
2023-03-13T17:45:32.751Z,97535.75
2023-03-13T17:48:00.392Z,97543.34
2023-03-13T17:50:29.036Z,97541.34
2023-03-13T17:52:56.547Z,97540.36
2023-03-13T17:55:24.816Z,97548.51
2023-03-13T17:57:53.195Z,97547.23
2023-03-13T18:00:35.348Z,97545.98
2023-03-13T18:03:03.507Z,97538.89
2023-03-13T18:05:31.378Z,97537.94
2023-03-13T18:07:59.239Z,97542.53
2023-03-13T18:10:30.346Z,97546.59
2023-03-13T18:12:58.638Z,97552.00
2023-03-13T18:15:26.955Z,97548.58
2023-03-13T18:17:54.817Z,97548.88
2023-03-13T18:20:26.997Z,97543.36
2023-03-13T18:26:08.676Z,97546.89
2023-03-13T18:28:55.976Z,97540.02
2023-03-13T18:31:44.963Z,97538.22
2023-03-13T18:34:15.502Z,97546.00
2023-03-13T18:36:44.011Z,97554.26
2023-03-13T18:39:22.603Z,97553.52
2023-03-13T18:41:52.331Z,97552.99
2023-03-13T18:44:27.020Z,97551.17
2023-03-13T18:46:55.037Z,97540.30
2023-03-13T18:49:24.345Z,97542.75
2023-03-13T18:51:53.545Z,97550.73
2023-03-13T18:54:21.537Z,97546.51
2023-03-13T18:56:49.254Z,97544.43
2023-03-13T18:59:22.252Z,97543.40
2023-03-13T19:01:50.546Z,97536.75
2023-03-13T19:04:19.633Z,97537.05
2023-03-13T19:06:47.746Z,97535.72
2023-03-13T19:09:41.733Z,97533.11
2023-03-13T19:11:48.663Z,97541.33
2023-03-13T19:14:16.776Z,97545.86
2023-03-13T19:16:52.492Z,97551.20
2023-03-13T19:19:24.167Z,97549.88
2023-03-13T19:21:56.524Z,97548.02
2023-03-13T19:24:26.793Z,97546.97
2023-03-13T19:26:59.437Z,97550.95
2023-03-13T19:29:39.930Z,97552.28
2023-03-13T19:32:28.546Z,97541.16
2023-03-13T19:34:56.210Z,97552.58
2023-03-13T19:37:24.521Z,97547.00
2023-03-13T19:39:52.301Z,97549.95
2023-03-13T19:42:20.283Z,97548.08
2023-03-13T19:44:49.815Z,97549.16
2023-03-13T19:47:17.820Z,97544.92
2023-03-13T19:49:49.047Z,97546.81
2023-03-13T19:52:18.856Z,97548.93
2023-03-13T19:54:47.186Z,97551.61
2023-03-13T19:57:16.849Z,97546.84
2023-03-13T19:59:45.306Z,97549.23
2023-03-13T20:02:13.257Z,97548.70
2023-03-13T20:04:43.356Z,97547.39
2023-03-13T20:07:11.375Z,97544.20
2023-03-13T20:09:39.196Z,97527.77
2023-03-13T20:12:07.376Z,97543.95
2023-03-13T20:14:35.361Z,97534.41
2023-03-13T20:17:03.281Z,97530.70
2023-03-13T20:19:31.164Z,97536.26
2023-03-13T20:22:00.866Z,97539.47
2023-03-13T20:24:34.691Z,97529.64
2023-03-13T20:27:03.836Z,97527.27
2023-03-13T20:29:33.425Z,97526.19
2023-03-13T20:32:03.088Z,97516.92
2023-03-13T20:34:31.144Z,97521.69
2023-03-13T20:36:59.546Z,97531.77
2023-03-13T20:39:28.532Z,97528.32
2023-03-13T20:41:56.955Z,97528.31
2023-03-13T20:44:41.329Z,97524.87
2023-03-13T20:47:25.771Z,97522.49
2023-03-13T20:49:53.423Z,97521.70
2023-03-13T20:52:21.155Z,97526.75
2023-03-13T20:54:49.075Z,97520.62
2023-03-13T20:57:18.536Z,97517.45
2023-03-13T20:59:46.567Z,97514.26
2023-03-13T21:02:14.616Z,97519.31
2023-03-13T21:04:42.829Z,97509.76
2023-03-13T21:07:10.596Z,97514.27
2023-03-13T21:09:38.425Z,97515.07
2023-03-13T21:12:06.656Z,97513.19
2023-03-13T21:14:35.879Z,97507.63
2023-03-13T21:17:04.040Z,97508.95
2023-03-13T21:19:33.736Z,97501.80
2023-03-13T21:22:01.933Z,97504.19
2023-03-13T21:24:29.650Z,97502.59
2023-03-13T21:26:58.952Z,97501.80
2023-03-13T21:29:26.570Z,97503.39
2023-03-13T21:31:54.132Z,97496.75
2023-03-13T21:34:21.927Z,97500.99
2023-03-13T21:36:49.798Z,97496.75
2023-03-13T21:39:20.907Z,97492.21
2023-03-13T21:41:48.894Z,97488.50
2023-03-13T21:44:18.600Z,97486.92
2023-03-13T21:46:48.238Z,97482.68
2023-03-13T21:49:15.930Z,97482.92
2023-03-13T21:51:44.123Z,97488.23
2023-03-13T21:54:12.235Z,97486.92
2023-03-13T21:56:40.489Z,97486.66
2023-03-13T21:59:08.799Z,97480.28
2023-03-13T22:01:36.707Z,97485.85
2023-03-13T22:04:04.560Z,97485.31
2023-03-13T22:06:34.332Z,97484.80
2023-03-13T22:09:05.892Z,97483.45
2023-03-13T22:11:33.896Z,97481.05
2023-03-13T22:14:03.624Z,97478.93
2023-03-13T22:16:35.052Z,97482.12
2023-03-13T22:19:03.653Z,97470.45
2023-03-13T22:21:34.801Z,97468.86
2023-03-13T22:24:02.944Z,97455.33
2023-03-13T22:26:31.936Z,97464.62
2023-03-13T22:28:59.539Z,97461.71
2023-03-13T22:31:27.141Z,97458.27
2023-03-13T22:33:56.717Z,97452.17
2023-03-13T22:36:24.723Z,97453.75
2023-03-13T22:38:56.681Z,97447.66
2023-03-13T22:41:24.571Z,97445.27
2023-03-13T22:43:52.667Z,97433.88
2023-03-13T22:46:20.875Z,97437.84
2023-03-13T22:48:49.060Z,97437.58
2023-03-13T22:51:16.833Z,97433.61
2023-03-13T22:53:44.559Z,97437.32
2023-03-13T22:56:14.527Z,97428.30
2023-03-13T22:58:44.419Z,97425.13
2023-03-13T23:01:16.832Z,97424.59
2023-03-13T23:03:45.968Z,97407.66
2023-03-13T23:06:21.484Z,97408.43
2023-03-13T23:08:50.059Z,97402.08
2023-03-13T23:11:18.503Z,97397.03
2023-03-13T23:13:46.517Z,97393.06
2023-03-13T23:16:14.775Z,97390.94
2023-03-13T23:18:43.152Z,97385.89
2023-03-13T23:21:14.127Z,97382.98
2023-03-13T23:23:42.940Z,97381.94
2023-03-13T23:26:13.917Z,97384.03
2023-03-13T23:28:41.977Z,97374.75
2023-03-13T23:31:17.040Z,97382.97
2023-03-13T23:33:46.360Z,97388.26
2023-03-13T23:36:17.505Z,97387.47
2023-03-13T23:38:51.713Z,97382.70
2023-03-13T23:41:21.187Z,97384.30
2023-03-13T23:43:48.742Z,97386.42
2023-03-13T23:46:20.897Z,97381.13
2023-03-13T23:48:50.552Z,97368.41
2023-03-13T23:51:18.490Z,97367.87
2023-03-13T23:53:46.230Z,97364.17
2023-03-13T23:56:14.877Z,97360.70
2023-03-13T23:58:43.138Z,97356.47
